sensor_id;sensor_type;location;lat;lon;timestamp;temperature;humidity
52044;DHT22;38053;53.100;6.078;2022-10-16T00:00:42;11.90;99.90
52044;DHT22;38053;53.100;6.078;2022-10-16T00:03:19;11.90;99.90
52044;DHT22;38053;53.100;6.078;2022-10-16T00:05:50;11.90;99.90
52044;DHT22;38053;53.100;6.078;2022-10-16T00:08:22;11.80;99.90
52044;DHT22;38053;53.100;6.078;2022-10-16T00:11:00;11.80;99.90
52044;DHT22;38053;53.100;6.078;2022-10-16T00:13:36;11.80;99.90
52044;DHT22;38053;53.100;6.078;2022-10-16T00:16:07;11.80;99.90
52044;DHT22;38053;53.100;6.078;2022-10-16T00:18:34;11.80;99.90
52044;DHT22;38053;53.100;6.078;2022-10-16T00:21:11;11.70;99.90
52044;DHT22;38053;53.100;6.078;2022-10-16T00:23:43;11.70;99.90
52044;DHT22;38053;53.100;6.078;2022-10-16T00:26:13;11.70;99.90
52044;DHT22;38053;53.100;6.078;2022-10-16T00:28:39;11.70;99.90
52044;DHT22;38053;53.100;6.078;2022-10-16T00:31:11;11.70;99.90
52044;DHT22;38053;53.100;6.078;2022-10-16T00:33:46;11.70;99.90
52044;DHT22;38053;53.100;6.078;2022-10-16T00:36:20;11.70;99.90
52044;DHT22;38053;53.100;6.078;2022-10-16T00:38:54;11.70;99.90
52044;DHT22;38053;53.100;6.078;2022-10-16T00:41:24;11.70;99.90
52044;DHT22;38053;53.100;6.078;2022-10-16T00:43:54;11.80;99.90
52044;DHT22;38053;53.100;6.078;2022-10-16T00:46:40;11.80;99.90
52044;DHT22;38053;53.100;6.078;2022-10-16T00:49:15;11.80;99.90
52044;DHT22;38053;53.100;6.078;2022-10-16T00:51:46;11.90;99.90
52044;DHT22;38053;53.100;6.078;2022-10-16T00:54:33;11.80;99.90
52044;DHT22;38053;53.100;6.078;2022-10-16T00:57:05;11.90;99.90
52044;DHT22;38053;53.100;6.078;2022-10-16T00:59:40;11.90;99.90
52044;DHT22;38053;53.100;6.078;2022-10-16T01:02:13;11.90;99.90
52044;DHT22;38053;53.100;6.078;2022-10-16T01:04:43;11.90;99.90
52044;DHT22;38053;53.100;6.078;2022-10-16T01:13:09;11.90;99.90
52044;DHT22;38053;53.100;6.078;2022-10-16T01:15:49;11.90;99.90
52044;DHT22;38053;53.100;6.078;2022-10-16T01:21:07;11.90;99.90
52044;DHT22;38053;53.100;6.078;2022-10-16T01:32:15;12.10;99.90
52044;DHT22;38053;53.100;6.078;2022-10-16T01:35:09;12.10;99.90
52044;DHT22;38053;53.100;6.078;2022-10-16T01:40:16;12.10;99.90
52044;DHT22;38053;53.100;6.078;2022-10-16T01:42:47;12.10;99.90
52044;DHT22;38053;53.100;6.078;2022-10-16T01:45:15;12.10;99.90
52044;DHT22;38053;53.100;6.078;2022-10-16T01:47:44;12.10;99.90
52044;DHT22;38053;53.100;6.078;2022-10-16T01:50:12;12.20;99.90
52044;DHT22;38053;53.100;6.078;2022-10-16T01:52:48;12.20;99.90
52044;DHT22;38053;53.100;6.078;2022-10-16T01:55:27;12.20;99.90
52044;DHT22;38053;53.100;6.078;2022-10-16T01:57:55;12.20;99.90
52044;DHT22;38053;53.100;6.078;2022-10-16T02:00:22;12.20;99.90
52044;DHT22;38053;53.100;6.078;2022-10-16T02:02:51;12.20;99.90
52044;DHT22;38053;53.100;6.078;2022-10-16T02:05:28;12.20;99.90
52044;DHT22;38053;53.100;6.078;2022-10-16T02:07:54;12.20;99.90
52044;DHT22;38053;53.100;6.078;2022-10-16T02:10:20;12.20;99.90
52044;DHT22;38053;53.100;6.078;2022-10-16T02:12:55;12.20;99.90
52044;DHT22;38053;53.100;6.078;2022-10-16T02:15:24;12.20;99.90
52044;DHT22;38053;53.100;6.078;2022-10-16T02:17:50;12.20;99.90
52044;DHT22;38053;53.100;6.078;2022-10-16T02:20:24;12.20;99.90
52044;DHT22;38053;53.100;6.078;2022-10-16T02:22:52;12.20;99.90
52044;DHT22;38053;53.100;6.078;2022-10-16T02:25:30;12.20;99.90
52044;DHT22;38053;53.100;6.078;2022-10-16T02:28:07;12.30;99.90
52044;DHT22;38053;53.100;6.078;2022-10-16T02:31:15;12.30;99.90
52044;DHT22;38053;53.100;6.078;2022-10-16T02:33:35;12.20;99.90
52044;DHT22;38053;53.100;6.078;2022-10-16T02:36:02;12.20;99.90
52044;DHT22;38053;53.100;6.078;2022-10-16T02:38:28;12.20;99.90
52044;DHT22;38053;53.100;6.078;2022-10-16T02:40:56;12.20;99.90
52044;DHT22;38053;53.100;6.078;2022-10-16T02:43:25;12.10;99.90
52044;DHT22;38053;53.100;6.078;2022-10-16T02:45:53;12.10;99.90
52044;DHT22;38053;53.100;6.078;2022-10-16T02:48:19;12.10;99.90
52044;DHT22;38053;53.100;6.078;2022-10-16T02:50:44;12.00;99.90
52044;DHT22;38053;53.100;6.078;2022-10-16T02:53:12;12.00;99.90
52044;DHT22;38053;53.100;6.078;2022-10-16T02:58:04;11.90;99.90
52044;DHT22;38053;53.100;6.078;2022-10-16T03:00:30;11.80;99.90
52044;DHT22;38053;53.100;6.078;2022-10-16T03:02:55;11.70;99.90
52044;DHT22;38053;53.100;6.078;2022-10-16T03:05:21;11.70;99.90
52044;DHT22;38053;53.100;6.078;2022-10-16T03:07:47;11.70;99.90
52044;DHT22;38053;53.100;6.078;2022-10-16T03:10:12;11.70;99.90
52044;DHT22;38053;53.100;6.078;2022-10-16T03:12:41;11.70;99.90
52044;DHT22;38053;53.100;6.078;2022-10-16T03:15:10;11.70;99.90
52044;DHT22;38053;53.100;6.078;2022-10-16T03:17:36;11.70;99.90
52044;DHT22;38053;53.100;6.078;2022-10-16T03:20:03;11.60;99.90
52044;DHT22;38053;53.100;6.078;2022-10-16T03:22:29;11.70;99.90
52044;DHT22;38053;53.100;6.078;2022-10-16T03:24:54;11.70;99.90
52044;DHT22;38053;53.100;6.078;2022-10-16T03:27:20;11.70;99.90
52044;DHT22;38053;53.100;6.078;2022-10-16T03:29:46;11.70;99.90
52044;DHT22;38053;53.100;6.078;2022-10-16T03:32:12;11.70;99.90
52044;DHT22;38053;53.100;6.078;2022-10-16T03:34:38;11.70;99.90
52044;DHT22;38053;53.100;6.078;2022-10-16T03:37:03;11.60;99.90
52044;DHT22;38053;53.100;6.078;2022-10-16T03:39:29;11.60;99.90
52044;DHT22;38053;53.100;6.078;2022-10-16T03:41:55;11.60;99.90
52044;DHT22;38053;53.100;6.078;2022-10-16T03:44:20;11.50;99.90
52044;DHT22;38053;53.100;6.078;2022-10-16T03:46:59;11.50;99.90
52044;DHT22;38053;53.100;6.078;2022-10-16T03:49:25;11.50;99.90
52044;DHT22;38053;53.100;6.078;2022-10-16T03:51:50;11.40;99.90
52044;DHT22;38053;53.100;6.078;2022-10-16T03:54:16;11.40;99.90
52044;DHT22;38053;53.100;6.078;2022-10-16T03:56:42;11.40;99.90
52044;DHT22;38053;53.100;6.078;2022-10-16T03:59:07;11.40;99.90
52044;DHT22;38053;53.100;6.078;2022-10-16T04:01:36;11.40;99.90
52044;DHT22;38053;53.100;6.078;2022-10-16T04:04:01;11.40;99.90
52044;DHT22;38053;53.100;6.078;2022-10-16T04:06:27;11.40;99.90
52044;DHT22;38053;53.100;6.078;2022-10-16T04:08:53;11.50;99.90
52044;DHT22;38053;53.100;6.078;2022-10-16T04:11:18;11.50;99.90
52044;DHT22;38053;53.100;6.078;2022-10-16T04:13:44;11.50;99.90
52044;DHT22;38053;53.100;6.078;2022-10-16T04:16:10;11.50;99.90
52044;DHT22;38053;53.100;6.078;2022-10-16T04:18:35;11.50;99.90
52044;DHT22;38053;53.100;6.078;2022-10-16T04:21:05;11.50;99.90
52044;DHT22;38053;53.100;6.078;2022-10-16T04:23:34;11.50;99.90
52044;DHT22;38053;53.100;6.078;2022-10-16T04:26:00;11.60;99.90
52044;DHT22;38053;53.100;6.078;2022-10-16T04:28:26;11.60;99.90
52044;DHT22;38053;53.100;6.078;2022-10-16T04:30:52;11.70;99.90
52044;DHT22;38053;53.100;6.078;2022-10-16T04:33:20;11.80;99.90
52044;DHT22;38053;53.100;6.078;2022-10-16T04:35:55;11.90;99.90
52044;DHT22;38053;53.100;6.078;2022-10-16T04:38:25;11.90;99.90
52044;DHT22;38053;53.100;6.078;2022-10-16T04:40:52;12.00;99.90
52044;DHT22;38053;53.100;6.078;2022-10-16T04:43:23;12.00;99.90
52044;DHT22;38053;53.100;6.078;2022-10-16T04:46:03;12.00;99.90
52044;DHT22;38053;53.100;6.078;2022-10-16T04:48:40;12.00;99.90
52044;DHT22;38053;53.100;6.078;2022-10-16T04:51:06;12.10;99.90
52044;DHT22;38053;53.100;6.078;2022-10-16T04:53:57;12.10;99.90
52044;DHT22;38053;53.100;6.078;2022-10-16T04:56:26;12.10;99.90
52044;DHT22;38053;53.100;6.078;2022-10-16T04:58:55;12.00;99.90
52044;DHT22;38053;53.100;6.078;2022-10-16T05:01:20;12.00;99.90
52044;DHT22;38053;53.100;6.078;2022-10-16T05:03:46;12.10;99.90
52044;DHT22;38053;53.100;6.078;2022-10-16T05:06:12;12.00;99.90
52044;DHT22;38053;53.100;6.078;2022-10-16T05:08:38;12.10;99.90
52044;DHT22;38053;53.100;6.078;2022-10-16T05:11:03;12.10;99.90
52044;DHT22;38053;53.100;6.078;2022-10-16T05:13:29;12.10;99.90
52044;DHT22;38053;53.100;6.078;2022-10-16T05:15:55;12.10;99.90
52044;DHT22;38053;53.100;6.078;2022-10-16T05:18:21;12.10;99.90
52044;DHT22;38053;53.100;6.078;2022-10-16T05:20:50;12.10;99.90
52044;DHT22;38053;53.100;6.078;2022-10-16T05:23:18;12.10;99.90
52044;DHT22;38053;53.100;6.078;2022-10-16T05:25:52;12.10;99.90
52044;DHT22;38053;53.100;6.078;2022-10-16T05:28:18;12.10;99.90
52044;DHT22;38053;53.100;6.078;2022-10-16T05:30:44;12.10;99.90
52044;DHT22;38053;53.100;6.078;2022-10-16T05:33:10;12.10;99.90
52044;DHT22;38053;53.100;6.078;2022-10-16T05:35:35;12.10;99.90
52044;DHT22;38053;53.100;6.078;2022-10-16T05:38:01;12.10;99.90
52044;DHT22;38053;53.100;6.078;2022-10-16T05:40:27;12.10;99.90
52044;DHT22;38053;53.100;6.078;2022-10-16T05:42:56;12.00;99.90
52044;DHT22;38053;53.100;6.078;2022-10-16T05:45:22;12.00;99.90
52044;DHT22;38053;53.100;6.078;2022-10-16T05:47:47;12.00;99.90
52044;DHT22;38053;53.100;6.078;2022-10-16T05:50:13;12.00;99.90
52044;DHT22;38053;53.100;6.078;2022-10-16T05:52:39;12.00;99.90
52044;DHT22;38053;53.100;6.078;2022-10-16T05:55:05;12.00;99.90
52044;DHT22;38053;53.100;6.078;2022-10-16T05:57:33;11.90;99.90
52044;DHT22;38053;53.100;6.078;2022-10-16T05:59:59;12.00;99.90
52044;DHT22;38053;53.100;6.078;2022-10-16T06:02:24;12.00;99.90
52044;DHT22;38053;53.100;6.078;2022-10-16T06:04:52;12.00;99.90
52044;DHT22;38053;53.100;6.078;2022-10-16T06:07:19;12.00;99.90
52044;DHT22;38053;53.100;6.078;2022-10-16T06:09:48;12.00;99.90
52044;DHT22;38053;53.100;6.078;2022-10-16T06:12:15;12.00;99.90
52044;DHT22;38053;53.100;6.078;2022-10-16T06:14:41;12.00;99.90
52044;DHT22;38053;53.100;6.078;2022-10-16T06:17:07;12.00;99.90
52044;DHT22;38053;53.100;6.078;2022-10-16T06:19:33;12.00;99.90
52044;DHT22;38053;53.100;6.078;2022-10-16T06:22:01;12.10;99.90
52044;DHT22;38053;53.100;6.078;2022-10-16T06:24:28;12.10;99.90
52044;DHT22;38053;53.100;6.078;2022-10-16T06:26:56;12.10;99.90
52044;DHT22;38053;53.100;6.078;2022-10-16T06:29:22;12.10;99.90
52044;DHT22;38053;53.100;6.078;2022-10-16T06:31:47;12.10;99.90
52044;DHT22;38053;53.100;6.078;2022-10-16T06:34:13;12.10;99.90
52044;DHT22;38053;53.100;6.078;2022-10-16T06:36:39;12.20;99.90
52044;DHT22;38053;53.100;6.078;2022-10-16T06:39:05;12.20;99.90
52044;DHT22;38053;53.100;6.078;2022-10-16T06:41:33;12.20;99.90
52044;DHT22;38053;53.100;6.078;2022-10-16T06:43:59;12.20;99.90
52044;DHT22;38053;53.100;6.078;2022-10-16T06:46:26;12.20;99.90
52044;DHT22;38053;53.100;6.078;2022-10-16T06:48:53;12.30;99.90
52044;DHT22;38053;53.100;6.078;2022-10-16T06:51:20;12.30;99.90
52044;DHT22;38053;53.100;6.078;2022-10-16T06:53:48;12.30;99.90
52044;DHT22;38053;53.100;6.078;2022-10-16T06:56:25;12.30;99.90
52044;DHT22;38053;53.100;6.078;2022-10-16T06:58:51;12.40;99.90
52044;DHT22;38053;53.100;6.078;2022-10-16T07:01:21;12.40;99.90
52044;DHT22;38053;53.100;6.078;2022-10-16T07:03:52;12.40;99.90
52044;DHT22;38053;53.100;6.078;2022-10-16T07:06:23;12.40;99.90
52044;DHT22;38053;53.100;6.078;2022-10-16T07:12:01;12.40;99.90
52044;DHT22;38053;53.100;6.078;2022-10-16T07:18:05;12.40;99.90
52044;DHT22;38053;53.100;6.078;2022-10-16T07:20:52;12.40;99.90
52044;DHT22;38053;53.100;6.078;2022-10-16T07:23:29;12.40;99.90
52044;DHT22;38053;53.100;6.078;2022-10-16T07:25:59;12.40;99.90
52044;DHT22;38053;53.100;6.078;2022-10-16T07:28:38;12.40;99.90
52044;DHT22;38053;53.100;6.078;2022-10-16T07:31:35;12.40;99.90
52044;DHT22;38053;53.100;6.078;2022-10-16T07:34:12;12.40;99.90
52044;DHT22;38053;53.100;6.078;2022-10-16T07:36:53;12.30;99.90
52044;DHT22;38053;53.100;6.078;2022-10-16T07:39:22;12.30;99.90
52044;DHT22;38053;53.100;6.078;2022-10-16T07:41:56;12.30;99.90
52044;DHT22;38053;53.100;6.078;2022-10-16T07:44:22;12.30;99.90
52044;DHT22;38053;53.100;6.078;2022-10-16T07:46:56;12.30;99.90
52044;DHT22;38053;53.100;6.078;2022-10-16T07:49:31;12.40;99.90
52044;DHT22;38053;53.100;6.078;2022-10-16T07:52:15;12.40;99.90
52044;DHT22;38053;53.100;6.078;2022-10-16T07:54:41;12.50;99.90
52044;DHT22;38053;53.100;6.078;2022-10-16T08:00:08;12.60;99.90
52044;DHT22;38053;53.100;6.078;2022-10-16T08:03:02;12.60;99.90
52044;DHT22;38053;53.100;6.078;2022-10-16T08:05:51;12.70;99.90
52044;DHT22;38053;53.100;6.078;2022-10-16T08:08:28;12.80;99.90
52044;DHT22;38053;53.100;6.078;2022-10-16T08:11:04;12.90;99.90
52044;DHT22;38053;53.100;6.078;2022-10-16T08:14:05;13.00;99.90
52044;DHT22;38053;53.100;6.078;2022-10-16T08:17:19;13.10;99.90
52044;DHT22;38053;53.100;6.078;2022-10-16T08:20:18;13.20;99.90
52044;DHT22;38053;53.100;6.078;2022-10-16T08:23:19;13.40;99.90
52044;DHT22;38053;53.100;6.078;2022-10-16T08:26:37;13.60;99.90
52044;DHT22;38053;53.100;6.078;2022-10-16T08:29:14;13.70;99.90
52044;DHT22;38053;53.100;6.078;2022-10-16T08:31:45;13.80;99.90
52044;DHT22;38053;53.100;6.078;2022-10-16T08:34:11;13.80;99.90
52044;DHT22;38053;53.100;6.078;2022-10-16T08:36:39;13.90;99.90
52044;DHT22;38053;53.100;6.078;2022-10-16T08:39:12;14.00;99.90
52044;DHT22;38053;53.100;6.078;2022-10-16T08:42:07;14.10;99.90
52044;DHT22;38053;53.100;6.078;2022-10-16T08:51:40;14.10;99.90
52044;DHT22;38053;53.100;6.078;2022-10-16T08:57:27;14.10;99.90
52044;DHT22;38053;53.100;6.078;2022-10-16T08:59:57;14.10;99.90
52044;DHT22;38053;53.100;6.078;2022-10-16T09:02:38;14.20;99.90
52044;DHT22;38053;53.100;6.078;2022-10-16T09:05:33;14.30;99.90
52044;DHT22;38053;53.100;6.078;2022-10-16T09:08:34;14.30;99.90
52044;DHT22;38053;53.100;6.078;2022-10-16T09:16:14;14.80;99.90
52044;DHT22;38053;53.100;6.078;2022-10-16T09:23:54;14.80;99.90
52044;DHT22;38053;53.100;6.078;2022-10-16T09:26:25;14.70;99.90
52044;DHT22;38053;53.100;6.078;2022-10-16T09:28:53;14.70;99.90
52044;DHT22;38053;53.100;6.078;2022-10-16T09:31:27;14.70;99.90
52044;DHT22;38053;53.100;6.078;2022-10-16T09:33:57;14.80;99.90
52044;DHT22;38053;53.100;6.078;2022-10-16T09:36:23;14.80;99.90
52044;DHT22;38053;53.100;6.078;2022-10-16T09:42:34;14.90;99.90
52044;DHT22;38053;53.100;6.078;2022-10-16T09:54:48;15.40;99.90
52044;DHT22;38053;53.100;6.078;2022-10-16T10:10:32;15.90;99.90
52044;DHT22;38053;53.100;6.078;2022-10-16T10:22:54;16.30;99.90
52044;DHT22;38053;53.100;6.078;2022-10-16T10:33:52;16.60;99.90
52044;DHT22;38053;53.100;6.078;2022-10-16T10:36:30;16.70;99.90
52044;DHT22;38053;53.100;6.078;2022-10-16T10:39:13;16.90;99.90
52044;DHT22;38053;53.100;6.078;2022-10-16T10:42:35;17.20;99.90
52044;DHT22;38053;53.100;6.078;2022-10-16T10:45:14;17.60;99.90
52044;DHT22;38053;53.100;6.078;2022-10-16T10:55:45;17.70;99.90
52044;DHT22;38053;53.100;6.078;2022-10-16T10:58:48;17.70;99.90
52044;DHT22;38053;53.100;6.078;2022-10-16T11:07:30;18.00;99.90
52044;DHT22;38053;53.100;6.078;2022-10-16T11:10:21;17.80;99.90
52044;DHT22;38053;53.100;6.078;2022-10-16T11:12:55;17.30;99.90
52044;DHT22;38053;53.100;6.078;2022-10-16T11:15:35;17.10;99.90
52044;DHT22;38053;53.100;6.078;2022-10-16T11:18:27;16.90;99.90
52044;DHT22;38053;53.100;6.078;2022-10-16T11:27:08;17.30;99.90
52044;DHT22;38053;53.100;6.078;2022-10-16T11:29:35;17.30;99.90
52044;DHT22;38053;53.100;6.078;2022-10-16T11:32:29;17.70;99.90
52044;DHT22;38053;53.100;6.078;2022-10-16T11:35:14;18.50;99.90
52044;DHT22;38053;53.100;6.078;2022-10-16T11:37:53;19.10;99.90
52044;DHT22;38053;53.100;6.078;2022-10-16T11:43:23;19.50;99.90
52044;DHT22;38053;53.100;6.078;2022-10-16T11:45:56;19.70;99.90
52044;DHT22;38053;53.100;6.078;2022-10-16T11:48:38;19.60;99.90
52044;DHT22;38053;53.100;6.078;2022-10-16T11:52:30;19.00;99.90
52044;DHT22;38053;53.100;6.078;2022-10-16T11:57:33;18.40;99.90
52044;DHT22;38053;53.100;6.078;2022-10-16T12:00:28;18.00;99.90
52044;DHT22;38053;53.100;6.078;2022-10-16T12:08:46;17.70;99.90
52044;DHT22;38053;53.100;6.078;2022-10-16T12:11:35;18.10;99.90
52044;DHT22;38053;53.100;6.078;2022-10-16T12:14:18;18.70;99.90
52044;DHT22;38053;53.100;6.078;2022-10-16T12:16:57;19.20;99.90
52044;DHT22;38053;53.100;6.078;2022-10-16T12:19:42;19.80;99.90
52044;DHT22;38053;53.100;6.078;2022-10-16T12:22:18;20.00;99.90
52044;DHT22;38053;53.100;6.078;2022-10-16T12:24:54;20.10;99.90
52044;DHT22;38053;53.100;6.078;2022-10-16T12:27:31;20.30;99.90
52044;DHT22;38053;53.100;6.078;2022-10-16T12:30:14;20.30;99.90
52044;DHT22;38053;53.100;6.078;2022-10-16T12:32:56;20.10;99.90
52044;DHT22;38053;53.100;6.078;2022-10-16T12:35:42;19.90;99.90
52044;DHT22;38053;53.100;6.078;2022-10-16T12:38:22;19.70;99.90
52044;DHT22;38053;53.100;6.078;2022-10-16T12:41:03;19.40;99.90
52044;DHT22;38053;53.100;6.078;2022-10-16T12:43:45;19.20;99.90
52044;DHT22;38053;53.100;6.078;2022-10-16T12:48:39;18.30;99.90
52044;DHT22;38053;53.100;6.078;2022-10-16T12:54:22;17.60;99.90
52044;DHT22;38053;53.100;6.078;2022-10-16T12:57:20;17.40;99.90
52044;DHT22;38053;53.100;6.078;2022-10-16T13:28:43;16.50;99.90
52044;DHT22;38053;53.100;6.078;2022-10-16T13:31:21;16.50;99.90
52044;DHT22;38053;53.100;6.078;2022-10-16T13:34:05;16.40;99.90
52044;DHT22;38053;53.100;6.078;2022-10-16T13:40:08;16.40;99.90
52044;DHT22;38053;53.100;6.078;2022-10-16T13:42:43;16.80;99.90
52044;DHT22;38053;53.100;6.078;2022-10-16T13:45:23;17.30;99.90
52044;DHT22;38053;53.100;6.078;2022-10-16T13:48:16;17.80;99.90
52044;DHT22;38053;53.100;6.078;2022-10-16T13:51:18;18.20;99.90
52044;DHT22;38053;53.100;6.078;2022-10-16T13:54:43;18.20;99.90
52044;DHT22;38053;53.100;6.078;2022-10-16T13:57:31;18.20;99.90
52044;DHT22;38053;53.100;6.078;2022-10-16T14:00:21;18.00;99.90
52044;DHT22;38053;53.100;6.078;2022-10-16T14:03:33;17.80;99.90
52044;DHT22;38053;53.100;6.078;2022-10-16T14:05:55;17.60;99.90
52044;DHT22;38053;53.100;6.078;2022-10-16T14:08:33;17.40;99.90
52044;DHT22;38053;53.100;6.078;2022-10-16T14:11:05;17.30;99.90
52044;DHT22;38053;53.100;6.078;2022-10-16T14:13:54;17.20;99.90
52044;DHT22;38053;53.100;6.078;2022-10-16T14:16:35;17.30;99.90
52044;DHT22;38053;53.100;6.078;2022-10-16T14:19:29;17.40;99.90
52044;DHT22;38053;53.100;6.078;2022-10-16T14:31:00;17.00;99.90
52044;DHT22;38053;53.100;6.078;2022-10-16T14:33:45;16.90;99.90
52044;DHT22;38053;53.100;6.078;2022-10-16T14:36:20;16.80;99.90
52044;DHT22;38053;53.100;6.078;2022-10-16T14:39:06;16.60;99.90
52044;DHT22;38053;53.100;6.078;2022-10-16T14:41:55;16.50;99.90
52044;DHT22;38053;53.100;6.078;2022-10-16T14:44:34;16.40;99.90
52044;DHT22;38053;53.100;6.078;2022-10-16T14:47:46;16.20;99.90
52044;DHT22;38053;53.100;6.078;2022-10-16T14:50:48;16.10;99.90
52044;DHT22;38053;53.100;6.078;2022-10-16T14:53:19;16.00;99.90
52044;DHT22;38053;53.100;6.078;2022-10-16T14:55:54;15.90;99.90
52044;DHT22;38053;53.100;6.078;2022-10-16T14:58:24;15.90;99.90
52044;DHT22;38053;53.100;6.078;2022-10-16T15:01:00;15.90;99.90
52044;DHT22;38053;53.100;6.078;2022-10-16T15:03:36;15.80;99.90
52044;DHT22;38053;53.100;6.078;2022-10-16T15:06:09;15.80;99.90
52044;DHT22;38053;53.100;6.078;2022-10-16T15:08:47;15.70;99.90
52044;DHT22;38053;53.100;6.078;2022-10-16T15:14:39;15.70;99.90
52044;DHT22;38053;53.100;6.078;2022-10-16T15:17:11;15.70;99.90
52044;DHT22;38053;53.100;6.078;2022-10-16T15:19:38;15.70;99.90
52044;DHT22;38053;53.100;6.078;2022-10-16T15:25:54;15.60;99.90
52044;DHT22;38053;53.100;6.078;2022-10-16T15:28:24;15.50;99.90
52044;DHT22;38053;53.100;6.078;2022-10-16T15:37:22;15.30;99.90
52044;DHT22;38053;53.100;6.078;2022-10-16T15:39:54;15.20;99.90
52044;DHT22;38053;53.100;6.078;2022-10-16T15:42:31;15.10;99.90
52044;DHT22;38053;53.100;6.078;2022-10-16T15:44:56;15.00;99.90
52044;DHT22;38053;53.100;6.078;2022-10-16T15:47:25;15.00;99.90
52044;DHT22;38053;53.100;6.078;2022-10-16T15:49:51;14.90;99.90
52044;DHT22;38053;53.100;6.078;2022-10-16T15:52:16;14.80;99.90
52044;DHT22;38053;53.100;6.078;2022-10-16T15:54:50;14.80;99.90
52044;DHT22;38053;53.100;6.078;2022-10-16T15:57:42;14.70;99.90
52044;DHT22;38053;53.100;6.078;2022-10-16T16:00:15;14.60;99.90
52044;DHT22;38053;53.100;6.078;2022-10-16T16:03:03;14.50;99.90
52044;DHT22;38053;53.100;6.078;2022-10-16T16:05:44;14.40;99.90
52044;DHT22;38053;53.100;6.078;2022-10-16T16:08:30;14.30;99.90
52044;DHT22;38053;53.100;6.078;2022-10-16T16:11:36;14.20;99.90
52044;DHT22;38053;53.100;6.078;2022-10-16T16:14:24;14.20;99.90
52044;DHT22;38053;53.100;6.078;2022-10-16T16:20:31;14.00;99.90
52044;DHT22;38053;53.100;6.078;2022-10-16T16:23:20;13.90;99.90
52044;DHT22;38053;53.100;6.078;2022-10-16T16:26:23;13.80;99.90
52044;DHT22;38053;53.100;6.078;2022-10-16T16:28:59;13.70;99.90
52044;DHT22;38053;53.100;6.078;2022-10-16T16:31:30;13.60;99.90
52044;DHT22;38053;53.100;6.078;2022-10-16T16:34:06;13.50;99.90
52044;DHT22;38053;53.100;6.078;2022-10-16T16:36:33;13.40;99.90
52044;DHT22;38053;53.100;6.078;2022-10-16T16:38:59;13.40;99.90
52044;DHT22;38053;53.100;6.078;2022-10-16T16:41:27;13.30;99.90
52044;DHT22;38053;53.100;6.078;2022-10-16T16:43:54;13.30;99.90
52044;DHT22;38053;53.100;6.078;2022-10-16T16:46:21;13.20;99.90
52044;DHT22;38053;53.100;6.078;2022-10-16T16:48:47;13.20;99.90
52044;DHT22;38053;53.100;6.078;2022-10-16T16:51:17;13.10;99.90
52044;DHT22;38053;53.100;6.078;2022-10-16T16:53:50;13.10;99.90
52044;DHT22;38053;53.100;6.078;2022-10-16T16:56:17;13.00;99.90
52044;DHT22;38053;53.100;6.078;2022-10-16T16:58:48;13.00;99.90
52044;DHT22;38053;53.100;6.078;2022-10-16T17:01:14;12.90;99.90
52044;DHT22;38053;53.100;6.078;2022-10-16T17:03:42;12.90;99.90
52044;DHT22;38053;53.100;6.078;2022-10-16T17:06:12;12.80;99.90
52044;DHT22;38053;53.100;6.078;2022-10-16T17:08:38;12.80;99.90
52044;DHT22;38053;53.100;6.078;2022-10-16T17:11:05;12.70;99.90
52044;DHT22;38053;53.100;6.078;2022-10-16T17:13:34;12.70;99.90
52044;DHT22;38053;53.100;6.078;2022-10-16T17:16:04;12.60;99.90
52044;DHT22;38053;53.100;6.078;2022-10-16T17:18:30;12.50;99.90
52044;DHT22;38053;53.100;6.078;2022-10-16T17:20:59;12.50;99.90
52044;DHT22;38053;53.100;6.078;2022-10-16T17:23:25;12.50;99.90
52044;DHT22;38053;53.100;6.078;2022-10-16T17:25:51;12.50;99.90
52044;DHT22;38053;53.100;6.078;2022-10-16T17:28:17;12.40;99.90
52044;DHT22;38053;53.100;6.078;2022-10-16T17:30:43;12.40;99.90
52044;DHT22;38053;53.100;6.078;2022-10-16T17:33:11;12.40;99.90
52044;DHT22;38053;53.100;6.078;2022-10-16T17:35:42;12.30;99.90
52044;DHT22;38053;53.100;6.078;2022-10-16T17:38:08;12.30;99.90
52044;DHT22;38053;53.100;6.078;2022-10-16T17:40:34;12.30;99.90
52044;DHT22;38053;53.100;6.078;2022-10-16T17:43:01;12.20;99.90
52044;DHT22;38053;53.100;6.078;2022-10-16T17:45:27;12.20;99.90
52044;DHT22;38053;53.100;6.078;2022-10-16T17:47:54;12.10;99.90
52044;DHT22;38053;53.100;6.078;2022-10-16T17:50:19;12.10;99.90
52044;DHT22;38053;53.100;6.078;2022-10-16T17:52:45;12.00;99.90
52044;DHT22;38053;53.100;6.078;2022-10-16T17:55:11;12.00;99.90
52044;DHT22;38053;53.100;6.078;2022-10-16T17:57:37;12.00;99.90
52044;DHT22;38053;53.100;6.078;2022-10-16T18:00:04;12.00;99.90
52044;DHT22;38053;53.100;6.078;2022-10-16T18:02:30;12.00;99.90
52044;DHT22;38053;53.100;6.078;2022-10-16T18:04:56;12.00;99.90
52044;DHT22;38053;53.100;6.078;2022-10-16T18:07:22;12.00;99.90
52044;DHT22;38053;53.100;6.078;2022-10-16T18:09:48;12.00;99.90
52044;DHT22;38053;53.100;6.078;2022-10-16T18:12:14;11.90;99.90
52044;DHT22;38053;53.100;6.078;2022-10-16T18:14:39;11.90;99.90
52044;DHT22;38053;53.100;6.078;2022-10-16T18:17:05;11.90;99.90
52044;DHT22;38053;53.100;6.078;2022-10-16T18:19:31;11.90;99.90
52044;DHT22;38053;53.100;6.078;2022-10-16T18:21:57;11.80;99.90
52044;DHT22;38053;53.100;6.078;2022-10-16T18:24:24;11.90;99.90
52044;DHT22;38053;53.100;6.078;2022-10-16T18:26:54;11.90;99.90
52044;DHT22;38053;53.100;6.078;2022-10-16T18:29:25;11.80;99.90
52044;DHT22;38053;53.100;6.078;2022-10-16T18:31:51;11.80;99.90
52044;DHT22;38053;53.100;6.078;2022-10-16T18:34:17;11.80;99.90
52044;DHT22;38053;53.100;6.078;2022-10-16T18:36:43;11.80;99.90
52044;DHT22;38053;53.100;6.078;2022-10-16T18:39:09;11.80;99.90
52044;DHT22;38053;53.100;6.078;2022-10-16T18:41:40;11.80;99.90
52044;DHT22;38053;53.100;6.078;2022-10-16T18:44:07;11.80;99.90
52044;DHT22;38053;53.100;6.078;2022-10-16T18:46:35;11.80;99.90
52044;DHT22;38053;53.100;6.078;2022-10-16T18:49:00;11.70;99.90
52044;DHT22;38053;53.100;6.078;2022-10-16T18:51:32;11.70;99.90
52044;DHT22;38053;53.100;6.078;2022-10-16T18:54:00;11.70;99.90
52044;DHT22;38053;53.100;6.078;2022-10-16T18:56:28;11.70;99.90
52044;DHT22;38053;53.100;6.078;2022-10-16T18:58:54;11.70;99.90
52044;DHT22;38053;53.100;6.078;2022-10-16T19:01:24;11.70;99.90
52044;DHT22;38053;53.100;6.078;2022-10-16T19:04:06;11.70;99.90
52044;DHT22;38053;53.100;6.078;2022-10-16T19:06:39;11.70;99.90
52044;DHT22;38053;53.100;6.078;2022-10-16T19:09:05;11.70;99.90
52044;DHT22;38053;53.100;6.078;2022-10-16T19:11:31;11.70;99.90
52044;DHT22;38053;53.100;6.078;2022-10-16T19:13:57;11.70;99.90
52044;DHT22;38053;53.100;6.078;2022-10-16T19:16:28;11.70;99.90
52044;DHT22;38053;53.100;6.078;2022-10-16T19:18:55;11.70;99.90
52044;DHT22;38053;53.100;6.078;2022-10-16T19:21:23;11.60;99.90